createdAt,value
2019-05-13T00:00:45.382Z,3.63
2019-05-13T00:03:13.912Z,3.70
2019-05-13T00:05:44.590Z,3.27
2019-05-13T00:08:13.947Z,3.67
2019-05-13T00:10:43.734Z,3.60
2019-05-13T00:13:14.465Z,3.85
2019-05-13T00:15:44.279Z,3.40
2019-05-13T00:18:14.477Z,3.70
2019-05-13T00:20:44.338Z,3.83
2019-05-13T00:23:14.275Z,3.25
2019-05-13T00:25:44.408Z,3.90
2019-05-13T00:28:14.439Z,3.85
2019-05-13T00:30:44.561Z,3.67
2019-05-13T00:33:13.982Z,3.50
2019-05-13T00:35:44.256Z,3.80
2019-05-13T00:38:14.105Z,4.00
2019-05-13T00:40:44.352Z,3.25
2019-05-13T00:43:14.236Z,3.90
2019-05-13T00:45:44.442Z,3.98
2019-05-13T00:48:14.376Z,4.10
2019-05-13T00:50:44.251Z,4.00
2019-05-13T00:53:13.434Z,4.13
2019-05-13T00:55:44.211Z,4.37
2019-05-13T00:58:13.995Z,3.87
2019-05-13T01:00:44.440Z,4.40
2019-05-13T01:03:14.342Z,4.30
2019-05-13T01:05:44.522Z,4.30
2019-05-13T01:08:14.556Z,4.40
2019-05-13T01:10:45.145Z,4.43
2019-05-13T01:13:13.811Z,4.40
2019-05-13T01:16:03.673Z,4.27
2019-05-13T01:18:34.062Z,4.43
2019-05-13T01:21:04.368Z,4.13
2019-05-13T01:23:34.407Z,4.37
2019-05-13T01:26:03.906Z,4.10
2019-05-13T01:28:34.422Z,4.40
2019-05-13T01:31:04.175Z,4.63
2019-05-13T01:33:34.870Z,4.73
2019-05-13T01:36:05.226Z,5.20
2019-05-13T01:38:34.072Z,5.00
2019-05-13T01:41:04.434Z,5.07
2019-05-13T01:43:33.590Z,4.75
2019-05-13T01:46:04.529Z,4.50
2019-05-13T01:48:33.392Z,4.43
2019-05-13T01:51:03.858Z,4.80
2019-05-13T01:53:33.640Z,5.03
2019-05-13T01:56:03.837Z,4.97
2019-05-13T01:58:33.986Z,5.27
2019-05-13T02:01:05.083Z,4.90
2019-05-13T02:03:33.899Z,4.90
2019-05-13T02:06:03.792Z,5.10
2019-05-13T02:08:33.719Z,5.10
2019-05-13T02:11:04.430Z,5.40
2019-05-13T02:13:34.394Z,5.43
2019-05-13T02:16:04.170Z,4.83
2019-05-13T02:18:34.179Z,5.17
2019-05-13T02:21:05.169Z,5.60
2019-05-13T02:23:34.115Z,5.87
2019-05-13T02:26:04.400Z,5.60
2019-05-13T02:28:33.377Z,5.17
2019-05-13T02:31:02.102Z,5.43
2019-05-13T02:33:34.024Z,5.40
2019-05-13T02:36:03.022Z,5.07
2019-05-13T02:38:35.219Z,5.60
2019-05-13T02:41:02.825Z,5.70
2019-05-13T02:43:33.248Z,5.80
2019-05-13T02:46:04.224Z,6.20
2019-05-13T02:48:33.097Z,5.90
2019-05-13T02:51:03.781Z,6.23
2019-05-13T02:53:33.554Z,6.13
2019-05-13T02:56:03.171Z,6.50
2019-05-13T02:58:33.260Z,6.83
2019-05-13T03:01:04.460Z,6.77
2019-05-13T03:03:33.216Z,6.27
2019-05-13T03:06:02.986Z,6.53
2019-05-13T03:08:44.301Z,6.37
2019-05-13T03:11:03.090Z,6.47
2019-05-13T03:13:33.485Z,7.30
2019-05-13T03:16:13.011Z,6.90
2019-05-13T03:18:43.584Z,6.67
2019-05-13T03:21:12.698Z,6.33
2019-05-13T03:23:44.168Z,6.40
2019-05-13T03:26:13.104Z,5.95
2019-05-13T03:28:43.562Z,5.70
2019-05-13T03:31:16.806Z,5.47
2019-05-13T03:33:46.335Z,5.00
2019-05-13T03:36:16.169Z,5.23
2019-05-13T03:38:59.533Z,5.80
2019-05-13T03:41:17.436Z,5.60
2019-05-13T03:43:47.539Z,5.90
2019-05-13T03:46:18.380Z,4.87
2019-05-13T03:48:52.686Z,5.87
2019-05-13T03:51:22.209Z,5.20
2019-05-13T03:53:53.456Z,5.92
2019-05-13T03:56:23.890Z,5.10
2019-05-13T03:58:53.780Z,5.90
2019-05-13T04:01:22.770Z,5.33
2019-05-13T04:03:52.746Z,5.20
2019-05-13T04:06:23.216Z,5.80
2019-05-13T04:08:53.879Z,5.50
2019-05-13T04:11:23.108Z,5.53
2019-05-13T04:13:52.809Z,6.33
2019-05-13T04:16:23.683Z,5.70
2019-05-13T04:18:53.693Z,6.10
2019-05-13T04:21:22.882Z,6.20
2019-05-13T04:23:53.302Z,6.07
2019-05-13T04:26:23.652Z,5.00
2019-05-13T04:28:52.880Z,5.17
2019-05-13T04:31:22.814Z,5.78
2019-05-13T04:33:53.378Z,5.30
2019-05-13T04:36:23.695Z,4.80
2019-05-13T04:38:53.123Z,4.60
2019-05-13T04:41:23.122Z,4.37
2019-05-13T04:43:54.258Z,4.20
2019-05-13T04:46:23.243Z,5.30
2019-05-13T04:48:53.060Z,5.27
2019-05-13T04:51:22.750Z,4.30
2019-05-13T04:53:56.015Z,4.60
2019-05-13T04:56:22.516Z,4.70
2019-05-13T04:58:52.765Z,4.63
2019-05-13T05:01:59.443Z,4.53
2019-05-13T05:04:52.452Z,4.90
2019-05-13T05:07:35.995Z,4.57
2019-05-13T05:10:38.805Z,4.65
2019-05-13T05:13:08.253Z,4.67
2019-05-13T05:16:03.683Z,4.43
2019-05-13T05:19:02.055Z,5.67
2019-05-13T05:21:56.464Z,4.67
2019-05-13T05:24:44.591Z,4.87
2019-05-13T05:27:51.567Z,6.27
2019-05-13T05:30:56.766Z,5.30
2019-05-13T05:33:37.425Z,5.87
2019-05-13T05:36:08.987Z,4.97
2019-05-13T05:39:15.489Z,5.00
2019-05-13T05:41:45.779Z,7.13
2019-05-13T05:44:16.066Z,5.33
2019-05-13T05:46:45.921Z,5.03
2019-05-13T05:49:17.024Z,5.00
2019-05-13T05:51:51.304Z,5.30
2019-05-13T05:54:22.066Z,5.37
2019-05-13T05:56:54.049Z,5.10
2019-05-13T05:59:25.422Z,5.20
2019-05-13T06:01:55.931Z,5.85
2019-05-13T06:04:26.056Z,5.53
2019-05-13T06:06:55.919Z,5.63
2019-05-13T06:09:26.154Z,5.80
2019-05-13T06:11:54.972Z,6.03
2019-05-13T06:14:23.971Z,5.50
2019-05-13T06:16:53.547Z,5.77
2019-05-13T06:19:22.627Z,6.00
2019-05-13T06:21:51.460Z,5.87
2019-05-13T06:24:24.534Z,6.00
2019-05-13T06:26:52.069Z,5.43
2019-05-13T06:29:22.206Z,5.28
2019-05-13T06:31:52.002Z,5.73
2019-05-13T06:34:21.559Z,6.17
2019-05-13T06:36:52.294Z,6.43
2019-05-13T06:39:22.224Z,6.13
2019-05-13T06:41:51.768Z,5.90
2019-05-13T06:44:21.529Z,6.53
2019-05-13T06:46:51.652Z,8.03
2019-05-13T06:49:21.722Z,9.90
2019-05-13T06:51:52.678Z,7.23
2019-05-13T06:54:21.934Z,7.70
2019-05-13T06:56:51.762Z,9.25
2019-05-13T06:59:22.385Z,8.73
2019-05-13T07:01:51.482Z,8.43
2019-05-13T07:04:21.920Z,9.33
2019-05-13T07:06:56.037Z,7.22
2019-05-13T07:09:21.620Z,8.57
2019-05-13T07:11:51.823Z,8.78
2019-05-13T07:14:21.774Z,16.50
2019-05-13T07:16:52.428Z,8.23
2019-05-13T07:19:23.720Z,8.57
2019-05-13T07:21:52.063Z,7.83
2019-05-13T07:24:21.444Z,8.97
2019-05-13T07:26:52.151Z,8.80
2019-05-13T07:29:21.435Z,8.58
2019-05-13T07:31:52.216Z,9.43
2019-05-13T07:34:24.648Z,9.30
2019-05-13T07:36:51.393Z,9.27
2019-05-13T07:39:22.331Z,10.05
2019-05-13T07:41:52.055Z,10.00
2019-05-13T07:44:22.362Z,9.50
2019-05-13T07:46:52.309Z,10.32
2019-05-13T07:49:22.525Z,9.87
2019-05-13T07:51:52.053Z,9.63
2019-05-13T07:54:22.069Z,10.27
2019-05-13T07:56:52.358Z,8.60
2019-05-13T07:59:21.210Z,9.50
2019-05-13T08:01:52.113Z,8.73
2019-05-13T08:04:25.589Z,8.40
2019-05-13T08:06:52.442Z,8.97
2019-05-13T08:09:21.576Z,9.60
2019-05-13T08:12:02.283Z,8.37
2019-05-13T08:14:21.747Z,8.28
2019-05-13T08:16:51.886Z,9.00
2019-05-13T08:19:21.805Z,8.73
2019-05-13T08:21:51.361Z,7.50
2019-05-13T08:24:22.646Z,8.50
2019-05-13T08:26:52.943Z,8.30
2019-05-13T08:29:21.662Z,8.40
2019-05-13T08:31:51.875Z,7.62
2019-05-13T08:34:22.577Z,7.75
2019-05-13T08:36:51.395Z,7.87
2019-05-13T08:39:21.649Z,8.47
2019-05-13T08:41:51.541Z,8.73
2019-05-13T08:44:21.636Z,8.30
2019-05-13T08:46:51.924Z,8.63
2019-05-13T08:49:21.958Z,7.70
2019-05-13T08:51:52.735Z,7.55
2019-05-13T08:54:21.990Z,7.03
2019-05-13T08:56:52.106Z,6.00
2019-05-13T08:59:22.166Z,6.83
2019-05-13T09:01:52.006Z,7.10
2019-05-13T09:04:22.238Z,7.42
2019-05-13T09:06:52.419Z,6.53
2019-05-13T09:09:22.048Z,7.00
2019-05-13T09:11:51.564Z,5.70
2019-05-13T09:14:21.873Z,6.30
2019-05-13T09:16:52.633Z,5.93
2019-05-13T09:19:21.543Z,5.83
2019-05-13T09:21:52.586Z,5.20
2019-05-13T09:24:30.505Z,5.87
2019-05-13T09:26:52.698Z,5.92
2019-05-13T09:29:22.604Z,5.10
2019-05-13T09:31:52.129Z,5.05
2019-05-13T09:34:22.172Z,5.37
2019-05-13T09:36:51.941Z,4.70
2019-05-13T09:39:21.637Z,4.17
2019-05-13T09:41:52.069Z,4.85
2019-05-13T09:44:21.779Z,4.47
2019-05-13T09:46:51.694Z,4.10
2019-05-13T09:49:23.526Z,4.73
2019-05-13T09:51:52.243Z,4.20
2019-05-13T09:54:22.277Z,3.75
2019-05-13T09:56:51.866Z,3.77
2019-05-13T09:59:22.176Z,3.22
2019-05-13T10:01:52.023Z,3.35
2019-05-13T10:04:22.367Z,3.62
2019-05-13T10:06:50.968Z,3.27
2019-05-13T10:09:21.689Z,3.30
2019-05-13T10:11:51.926Z,3.00
2019-05-13T10:14:22.811Z,2.45
2019-05-13T10:16:51.489Z,2.80
2019-05-13T10:19:21.451Z,3.15
2019-05-13T10:21:52.358Z,2.87
2019-05-13T10:24:22.216Z,2.70
2019-05-13T10:26:51.750Z,3.22
2019-05-13T10:29:22.318Z,2.70
2019-05-13T10:31:52.343Z,3.33
2019-05-13T10:34:22.517Z,3.00
2019-05-13T10:36:51.565Z,3.22
2019-05-13T10:39:22.271Z,3.02
2019-05-13T10:41:52.374Z,3.92
2019-05-13T10:44:21.072Z,4.50
2019-05-13T10:46:52.257Z,3.25
2019-05-13T10:49:22.128Z,3.72
2019-05-13T10:51:52.630Z,4.12
2019-05-13T10:54:21.755Z,4.40
2019-05-13T10:56:53.218Z,3.17
2019-05-13T10:59:23.245Z,3.98
2019-05-13T11:01:52.083Z,4.53
2019-05-13T11:04:22.193Z,4.22
2019-05-13T11:06:52.451Z,4.12
2019-05-13T11:09:22.106Z,4.37
2019-05-13T11:11:52.898Z,3.83
2019-05-13T11:14:22.005Z,4.60
2019-05-13T11:16:52.357Z,4.42
2019-05-13T11:19:23.188Z,4.33
2019-05-13T11:21:52.129Z,3.92
2019-05-13T11:24:22.849Z,3.65
2019-05-13T11:26:53.100Z,4.03
2019-05-13T11:29:22.947Z,3.83
2019-05-13T11:31:52.446Z,3.87
2019-05-13T11:34:22.275Z,3.22
2019-05-13T11:36:53.346Z,3.50
2019-05-13T11:39:22.229Z,3.07
2019-05-13T11:41:51.043Z,3.25
2019-05-13T11:44:22.538Z,3.17
2019-05-13T11:46:52.403Z,2.58
2019-05-13T11:49:20.118Z,2.57
2019-05-13T11:51:48.654Z,2.50
2019-05-13T11:54:17.350Z,2.70
2019-05-13T11:56:50.361Z,2.40
2019-05-13T11:59:16.275Z,3.20
2019-05-13T12:02:05.030Z,2.80
2019-05-13T12:04:34.836Z,3.20
2019-05-13T12:07:03.844Z,3.02
2019-05-13T12:09:32.550Z,2.90
2019-05-13T12:12:03.307Z,2.95
2019-05-13T12:14:47.174Z,3.60
2019-05-13T12:17:03.610Z,2.90
2019-05-13T12:19:32.265Z,3.77
2019-05-13T12:22:02.624Z,3.00
2019-05-13T12:24:31.206Z,3.55
2019-05-13T12:27:03.296Z,4.15
2019-05-13T12:29:29.931Z,4.42
2019-05-13T12:31:58.829Z,6.03
2019-05-13T12:34:27.550Z,5.58
2019-05-13T12:36:56.146Z,4.12
2019-05-13T12:39:24.779Z,3.87
2019-05-13T12:41:54.046Z,3.30
2019-05-13T12:44:22.969Z,3.33
2019-05-13T12:46:54.354Z,3.90
2019-05-13T12:49:22.251Z,3.70
2019-05-13T12:51:51.697Z,3.98
2019-05-13T12:54:23.456Z,4.27
2019-05-13T12:56:52.430Z,3.02
2019-05-13T12:59:22.247Z,2.60
2019-05-13T13:01:52.634Z,3.45
2019-05-13T13:04:23.958Z,3.05
2019-05-13T13:06:53.324Z,4.87
2019-05-13T13:09:25.487Z,3.14
2019-05-13T13:11:54.677Z,2.40
2019-05-13T13:14:23.302Z,2.37
2019-05-13T13:16:54.034Z,2.17
2019-05-13T13:19:22.232Z,2.12
2019-05-13T13:21:53.369Z,2.57
2019-05-13T13:24:23.641Z,2.55
2019-05-13T13:26:53.417Z,2.33
2019-05-13T13:29:22.128Z,2.00
2019-05-13T13:31:55.534Z,1.80
2019-05-13T13:34:25.760Z,1.62
2019-05-13T13:36:52.853Z,2.05
2019-05-13T13:39:25.294Z,2.02
2019-05-13T13:41:53.304Z,2.58
2019-05-13T13:44:24.513Z,2.17
2019-05-13T13:46:54.784Z,2.20
2019-05-13T13:49:23.344Z,1.90
2019-05-13T13:51:52.214Z,1.72
2019-05-13T13:54:22.463Z,1.75
2019-05-13T13:56:55.981Z,1.70
2019-05-13T13:59:24.586Z,1.30
2019-05-13T14:01:54.923Z,1.62
2019-05-13T14:04:22.753Z,1.63
2019-05-13T14:09:22.431Z,1.75
2019-05-13T14:12:11.369Z,1.70
2019-05-13T14:14:41.415Z,2.42
2019-05-13T14:17:11.505Z,2.05
2019-05-13T14:19:42.123Z,1.87
2019-05-13T14:22:12.613Z,2.50
2019-05-13T14:24:42.578Z,2.40
2019-05-13T14:27:27.445Z,2.90
2019-05-13T14:29:48.843Z,2.80
2019-05-13T14:32:12.770Z,2.63
2019-05-13T14:34:42.076Z,2.93
2019-05-13T14:37:11.726Z,3.05
2019-05-13T14:39:40.663Z,2.60
2019-05-13T14:42:11.425Z,2.70
2019-05-13T14:44:39.607Z,3.00
2019-05-13T14:47:08.163Z,2.87
2019-05-13T14:49:36.768Z,2.30
2019-05-13T14:52:06.460Z,2.43
2019-05-13T14:54:35.298Z,2.40
2019-05-13T14:57:03.926Z,2.53
2019-05-13T14:59:32.527Z,2.62
2019-05-13T15:02:01.512Z,2.65
2019-05-13T15:04:32.455Z,2.52
2019-05-13T15:07:00.521Z,2.67
2019-05-13T15:09:31.346Z,2.62
2019-05-13T15:12:02.145Z,3.50
2019-05-13T15:14:31.900Z,3.67
2019-05-13T15:17:04.072Z,2.73
2019-05-13T15:19:31.824Z,2.57
2019-05-13T15:22:00.643Z,2.17
2019-05-13T15:24:32.038Z,2.10
2019-05-13T15:27:01.729Z,2.00
2019-05-13T15:29:31.362Z,1.93
2019-05-13T15:32:02.049Z,3.03
2019-05-13T15:34:31.795Z,5.80
2019-05-13T15:37:01.969Z,4.58
2019-05-13T15:39:31.545Z,3.20
2019-05-13T15:42:01.977Z,3.00
2019-05-13T15:44:32.602Z,3.10
2019-05-13T15:47:07.198Z,3.43
2019-05-13T15:49:32.459Z,2.50
2019-05-13T15:52:01.933Z,1.90
2019-05-13T15:54:32.766Z,1.90
2019-05-13T15:57:02.847Z,2.23
2019-05-13T15:59:31.513Z,1.93
2019-05-13T16:02:02.110Z,3.43
2019-05-13T16:04:30.409Z,2.80
2019-05-13T16:07:01.481Z,2.50
2019-05-13T16:09:31.461Z,2.50
2019-05-13T16:12:01.544Z,2.08
2019-05-13T16:14:31.504Z,4.03
2019-05-13T16:17:00.257Z,2.77
2019-05-13T16:19:32.383Z,2.73
2019-05-13T16:22:01.359Z,2.80
2019-05-13T16:24:32.169Z,3.50
2019-05-13T16:27:02.529Z,2.98
2019-05-13T16:29:31.611Z,2.70
2019-05-13T16:32:01.475Z,2.50
2019-05-13T16:34:31.865Z,3.37
2019-05-13T16:37:01.813Z,5.13
2019-05-13T16:39:31.983Z,4.60
2019-05-13T16:42:00.951Z,8.20
2019-05-13T16:44:31.917Z,7.93
2019-05-13T16:47:01.525Z,4.20
2019-05-13T16:49:31.905Z,2.63
2019-05-13T16:52:02.620Z,3.00
2019-05-13T16:54:32.812Z,3.17
2019-05-13T16:57:01.846Z,3.33
2019-05-13T16:59:31.645Z,3.10
2019-05-13T17:02:01.867Z,3.40
2019-05-13T17:04:32.126Z,2.93
2019-05-13T17:07:01.657Z,3.30
2019-05-13T17:09:32.379Z,2.92
2019-05-13T17:12:01.442Z,3.52
2019-05-13T17:14:32.062Z,3.57
2019-05-13T17:17:01.180Z,4.42
2019-05-13T17:19:31.739Z,4.40
2019-05-13T17:22:02.314Z,4.23
2019-05-13T17:24:31.989Z,3.70
2019-05-13T17:27:02.039Z,3.90
2019-05-13T17:29:32.042Z,4.20
2019-05-13T17:32:02.452Z,3.80
2019-05-13T17:34:31.817Z,3.97
2019-05-13T17:37:02.604Z,3.90
2019-05-13T17:39:32.138Z,4.07
2019-05-13T17:42:01.488Z,4.03
2019-05-13T17:44:31.801Z,4.20
2019-05-13T17:47:01.788Z,4.72
2019-05-13T17:49:35.796Z,5.20
2019-05-13T17:52:04.735Z,5.62
2019-05-13T17:54:33.894Z,5.60
2019-05-13T17:57:03.475Z,4.67
2019-05-13T17:59:33.972Z,5.37
2019-05-13T18:02:02.835Z,4.60
2019-05-13T18:04:31.643Z,5.60
2019-05-13T18:07:01.628Z,5.70
2019-05-13T18:09:31.956Z,6.07
2019-05-13T18:12:02.494Z,7.30
2019-05-13T18:14:31.331Z,6.93
2019-05-13T18:17:02.058Z,6.80
2019-05-13T18:19:31.753Z,6.37
2019-05-13T18:22:02.282Z,6.80
2019-05-13T18:24:32.030Z,6.87
2019-05-13T18:27:01.439Z,6.33
2019-05-13T18:33:04.393Z,8.30
2019-05-13T18:35:33.360Z,7.20
2019-05-13T18:38:02.051Z,7.35
2019-05-13T18:40:31.540Z,7.70
2019-05-13T18:43:01.926Z,8.50
2019-05-13T18:45:34.524Z,8.27
2019-05-13T18:48:03.396Z,7.37
2019-05-13T18:50:33.346Z,6.90
2019-05-13T18:53:02.632Z,7.27
2019-05-13T18:55:31.518Z,6.90
2019-05-13T18:58:01.081Z,8.33
2019-05-13T19:00:32.067Z,9.03
2019-05-13T19:03:01.278Z,9.03
2019-05-13T19:05:31.709Z,9.18
2019-05-13T19:08:01.878Z,8.23
2019-05-13T19:10:31.290Z,9.53
2019-05-13T19:13:01.713Z,12.37
2019-05-13T19:15:31.658Z,9.60
2019-05-13T19:18:00.412Z,7.63
2019-05-13T19:20:31.206Z,7.60
2019-05-13T19:23:01.084Z,8.17
2019-05-13T19:25:31.376Z,8.03
2019-05-13T19:28:02.221Z,6.87
2019-05-13T19:30:31.793Z,7.67
2019-05-13T19:33:01.367Z,7.27
2019-05-13T19:35:32.153Z,7.03
2019-05-13T19:38:01.612Z,7.30
2019-05-13T19:40:31.263Z,6.80
2019-05-13T19:43:01.597Z,6.77
2019-05-13T19:45:32.217Z,7.67
2019-05-13T19:48:01.280Z,7.40
2019-05-13T19:50:31.587Z,7.63
2019-05-13T19:53:01.310Z,6.63
2019-05-13T19:55:30.133Z,6.60
2019-05-13T19:58:01.697Z,6.30
2019-05-13T20:00:31.584Z,6.93
2019-05-13T20:03:00.092Z,6.60
2019-05-13T20:05:28.834Z,7.00
2019-05-13T20:07:57.437Z,7.60
2019-05-13T20:10:26.274Z,6.63
2019-05-13T20:12:54.993Z,7.20
2019-05-13T20:15:24.562Z,7.00
2019-05-13T20:17:53.327Z,7.30
2019-05-13T20:20:22.380Z,6.85
2019-05-13T20:22:51.746Z,6.83
2019-05-13T20:25:21.741Z,7.13
2019-05-13T20:27:51.543Z,7.07
2019-05-13T20:30:21.969Z,7.40
2019-05-13T20:32:51.562Z,8.50
2019-05-13T20:35:21.926Z,7.33
2019-05-13T20:37:51.583Z,6.53
2019-05-13T20:40:22.063Z,7.80
2019-05-13T20:42:51.566Z,6.95
2019-05-13T20:45:22.422Z,7.97
2019-05-13T20:47:50.824Z,7.13
2019-05-13T20:50:21.696Z,6.80
2019-05-13T20:52:51.580Z,6.90
2019-05-13T20:55:22.001Z,7.00
2019-05-13T20:57:53.082Z,7.60
2019-05-13T21:00:21.260Z,7.27
2019-05-13T21:02:51.661Z,6.87
2019-05-13T21:05:21.695Z,7.50
2019-05-13T21:07:51.543Z,7.37
2019-05-13T21:10:21.102Z,6.90
2019-05-13T21:12:51.439Z,7.10
2019-05-13T21:15:20.288Z,7.75
2019-05-13T21:17:51.445Z,7.13
2019-05-13T21:20:23.233Z,7.37
2019-05-13T21:22:51.740Z,8.20
2019-05-13T21:25:20.544Z,7.77
2019-05-13T21:27:51.338Z,9.13
2019-05-13T21:30:22.088Z,8.70
2019-05-13T21:32:51.772Z,9.30
2019-05-13T21:35:21.219Z,9.43
2019-05-13T21:37:51.216Z,9.35
2019-05-13T21:40:21.718Z,9.47
2019-05-13T21:42:52.425Z,10.13
2019-05-13T21:45:20.657Z,10.00
2019-05-13T21:47:49.253Z,9.70
2019-05-13T21:50:31.090Z,10.50
2019-05-13T21:52:51.446Z,10.83
2019-05-13T21:55:21.533Z,10.90
2019-05-13T21:57:49.538Z,11.13
2019-05-13T22:00:23.490Z,10.87
2019-05-13T22:02:51.567Z,10.73
2019-05-13T22:05:22.199Z,11.07
2019-05-13T22:07:50.494Z,10.77
2019-05-13T22:10:21.520Z,10.63
2019-05-13T22:12:51.687Z,11.37
2019-05-13T22:15:21.725Z,11.40
2019-05-13T22:17:51.264Z,11.37
2019-05-13T22:20:21.338Z,11.57
2019-05-13T22:22:51.963Z,11.70
2019-05-13T22:25:21.218Z,11.47
2019-05-13T22:27:51.727Z,12.07
2019-05-13T22:30:20.084Z,11.40
2019-05-13T22:32:48.714Z,12.10
2019-05-13T22:35:17.334Z,11.67
2019-05-13T22:37:45.957Z,11.60
2019-05-13T22:40:14.820Z,13.30
2019-05-13T22:42:43.444Z,13.87
2019-05-13T22:45:12.131Z,13.67
2019-05-13T22:47:42.194Z,13.70
2019-05-13T22:50:11.614Z,12.90
2019-05-13T22:52:41.935Z,13.10
2019-05-13T22:55:11.582Z,13.50
2019-05-13T22:57:41.928Z,13.90
2019-05-13T23:00:11.819Z,13.70
2019-05-13T23:02:42.083Z,12.17
2019-05-13T23:05:11.418Z,12.93
2019-05-13T23:07:40.263Z,12.67
2019-05-13T23:10:09.045Z,12.07
2019-05-13T23:12:37.692Z,12.23
2019-05-13T23:15:07.773Z,12.03
2019-05-13T23:17:36.462Z,11.73
2019-05-13T23:20:06.879Z,11.73
2019-05-13T23:22:35.513Z,11.88
2019-05-13T23:25:06.128Z,11.67
2019-05-13T23:27:34.687Z,11.65
2019-05-13T23:30:04.937Z,12.57
2019-05-13T23:32:33.534Z,11.80
2019-05-13T23:35:02.168Z,11.10
2019-05-13T23:37:31.221Z,11.28
2019-05-13T23:40:01.398Z,11.63
2019-05-13T23:42:31.960Z,10.73
2019-05-13T23:45:00.466Z,10.53
2019-05-13T23:47:31.020Z,11.53
2019-05-13T23:49:59.193Z,12.23
2019-05-13T23:52:28.074Z,10.93
2019-05-13T23:54:56.774Z,11.35
2019-05-13T23:57:25.321Z,11.60
2019-05-13T23:59:54.187Z,11.00
